KISQ/ISQ METAR and TAF weather

Enter ICAO airport designator
Station Type Date Time Source
KISQ METAR 2022/06/30 00:35 UTC NOAA

KISQ 300035Z AUTO 00000KT 10SM CLR 16/09 A3016 RMK AO2 T01620088


Station Type Date Time Source
KISQ Decoded METAR 2022/06/30 00:35 UTC NOAA

Manistique, Schoolcraft County Airport, MI, United States (KISQ) 45-58-29N 086-10-19W
Jun 29, 2022 - 08:35 PM EDT / 2022.06.30 0035 UTC
Wind: Calm:0
Visibility: 10 mile(s):0
Sky conditions: clear
Temperature: 61.2 F (16.2 C)
Dew Point: 47.8 F (8.8 C)
Relative Humidity: 61%
Pressure (altimeter): 30.16 in. Hg (1021 hPa)
ob: KISQ 300035Z AUTO 00000KT 10SM CLR 16/09 A3016 RMK AO2 T01620088
cycle: 0

Station Type Date Time Source
KISQ TAF UTC NOAA

Error!

Example: see airport list